createdAt,value
2023-03-17T00:00:36.799Z,11
2023-03-17T00:02:36.925Z,11
2023-03-17T00:03:36.862Z,11
2023-03-17T00:04:36.792Z,11
2023-03-17T00:05:36.813Z,11
2023-03-17T00:07:36.793Z,11.1
2023-03-17T00:08:36.794Z,11.1
2023-03-17T00:10:36.790Z,11.1
2023-03-17T00:11:36.797Z,11.1
2023-03-17T00:12:36.820Z,11.1
2023-03-17T00:13:36.788Z,11.1
2023-03-17T00:15:36.815Z,11
2023-03-17T00:16:36.797Z,11
2023-03-17T00:17:36.795Z,11
2023-03-17T00:18:36.802Z,11
2023-03-17T00:19:36.812Z,11
2023-03-17T00:20:36.789Z,11.1
2023-03-17T00:21:36.791Z,11
2023-03-17T00:23:36.794Z,11
2023-03-17T00:24:36.792Z,11
2023-03-17T00:25:36.790Z,11
2023-03-17T00:26:36.826Z,11
2023-03-17T00:28:36.800Z,11
2023-03-17T00:29:36.893Z,11
2023-03-17T00:30:36.783Z,11
2023-03-17T00:31:36.838Z,11
2023-03-17T00:32:36.818Z,10.9
2023-03-17T00:33:36.812Z,10.9
2023-03-17T00:34:36.801Z,10.9
2023-03-17T00:36:36.789Z,10.9
2023-03-17T00:37:36.789Z,10.8
2023-03-17T00:38:36.829Z,10.8
2023-03-17T00:39:36.796Z,10.8
2023-03-17T00:41:36.781Z,10.8
2023-03-17T00:42:36.784Z,10.8
2023-03-17T00:44:36.808Z,10.8
2023-03-17T00:45:36.820Z,10.8
2023-03-17T00:47:36.790Z,10.8
2023-03-17T00:48:36.790Z,10.8
2023-03-17T00:49:36.929Z,10.8
2023-03-17T00:50:36.783Z,10.8
2023-03-17T00:51:37.168Z,10.7
2023-03-17T00:52:36.784Z,10.8
2023-03-17T00:53:36.801Z,10.8
2023-03-17T00:55:36.781Z,10.8
2023-03-17T00:56:36.790Z,10.7
2023-03-17T00:57:36.821Z,10.7
2023-03-17T00:58:36.781Z,10.7
2023-03-17T00:59:36.781Z,10.7
2023-03-17T01:00:36.832Z,10.7
2023-03-17T01:01:36.855Z,10.7
2023-03-17T01:02:36.803Z,10.7
2023-03-17T01:03:36.792Z,10.7
2023-03-17T01:05:36.785Z,10.7
2023-03-17T01:06:36.780Z,10.7
2023-03-17T01:07:36.784Z,10.6
2023-03-17T01:08:36.781Z,10.6
2023-03-17T01:10:36.778Z,10.6
2023-03-17T01:11:36.800Z,10.6
2023-03-17T01:12:36.795Z,10.7
2023-03-17T01:13:36.801Z,10.7
2023-03-17T01:14:38.086Z,10.7
2023-03-17T01:15:36.846Z,10.7
2023-03-17T01:16:36.861Z,10.7
2023-03-17T01:18:36.836Z,10.7
2023-03-17T01:19:36.797Z,10.7
2023-03-17T01:20:37.035Z,10.7
2023-03-17T01:21:36.797Z,10.8
2023-03-17T01:22:36.792Z,10.8
2023-03-17T01:23:36.782Z,10.8
2023-03-17T01:24:36.784Z,10.8
2023-03-17T01:25:36.789Z,10.8
2023-03-17T01:26:36.784Z,10.7
2023-03-17T01:27:36.788Z,10.7
2023-03-17T01:29:36.850Z,10.7
2023-03-17T01:31:36.874Z,10.8
2023-03-17T01:32:36.850Z,10.8
2023-03-17T01:33:36.792Z,10.8
2023-03-17T01:34:36.783Z,10.8
2023-03-17T01:35:36.927Z,10.8
2023-03-17T01:36:36.779Z,10.8
2023-03-17T01:37:36.852Z,10.8
2023-03-17T01:39:36.787Z,10.8
2023-03-17T01:40:36.783Z,10.7
2023-03-17T01:41:36.788Z,10.7
2023-03-17T01:42:36.784Z,10.7
2023-03-17T01:43:36.788Z,10.7
2023-03-17T01:44:36.784Z,10.7
2023-03-17T01:45:36.842Z,10.7
2023-03-17T01:46:36.815Z,10.7
2023-03-17T01:47:36.789Z,10.6
2023-03-17T01:48:36.793Z,10.6
2023-03-17T01:50:36.776Z,10.6
2023-03-17T01:51:36.797Z,10.6
2023-03-17T01:52:36.789Z,10.7
2023-03-17T01:53:36.785Z,10.7
2023-03-17T01:54:36.776Z,10.7
2023-03-17T01:55:36.792Z,10.7
2023-03-17T01:56:36.777Z,10.7
2023-03-17T01:58:36.780Z,10.7
2023-03-17T01:59:36.821Z,10.8
2023-03-17T02:00:36.779Z,10.7
2023-03-17T02:01:36.792Z,10.8
2023-03-17T02:02:36.770Z,10.8
2023-03-17T02:03:36.783Z,10.8
2023-03-17T02:04:36.861Z,10.8
2023-03-17T02:05:36.788Z,10.8
2023-03-17T02:06:42.137Z,10.8
2023-03-17T02:07:36.828Z,10.8
2023-03-17T02:08:36.774Z,10.8
2023-03-17T02:09:36.845Z,10.8
2023-03-17T02:11:36.796Z,10.8
2023-03-17T02:12:36.787Z,10.8
2023-03-17T02:13:36.773Z,10.9
2023-03-17T02:14:36.812Z,10.8
2023-03-17T02:15:36.779Z,10.8
2023-03-17T02:16:36.908Z,10.8
2023-03-17T02:17:36.777Z,10.8
2023-03-17T02:19:36.772Z,10.8
2023-03-17T02:20:36.838Z,10.8
2023-03-17T02:21:36.788Z,10.8
2023-03-17T02:22:36.768Z,10.8
2023-03-17T02:23:36.778Z,10.8
2023-03-17T02:24:36.775Z,10.8
2023-03-17T02:25:36.800Z,10.8
2023-03-17T02:26:36.780Z,10.8
2023-03-17T02:27:36.774Z,10.9
2023-03-17T02:28:36.771Z,10.9
2023-03-17T02:29:36.792Z,10.9
2023-03-17T02:30:36.830Z,10.8
2023-03-17T02:32:36.869Z,10.8
2023-03-17T02:33:36.786Z,10.8
2023-03-17T02:34:36.787Z,10.8
2023-03-17T02:35:36.857Z,10.8
2023-03-17T02:36:36.806Z,10.8
2023-03-17T02:37:36.833Z,10.8
2023-03-17T02:38:36.783Z,10.9
2023-03-17T02:39:36.784Z,10.9
2023-03-17T02:40:36.779Z,10.9
2023-03-17T02:41:36.785Z,10.9
2023-03-17T02:42:36.775Z,10.9
2023-03-17T02:43:36.772Z,10.9
2023-03-17T02:44:36.777Z,10.9
2023-03-17T02:45:36.818Z,10.9
2023-03-17T02:46:36.842Z,10.9
2023-03-17T02:47:36.777Z,10.9
2023-03-17T02:48:36.772Z,10.9
2023-03-17T02:49:36.874Z,10.8
2023-03-17T02:50:36.793Z,10.8
2023-03-17T02:51:36.786Z,10.8
2023-03-17T02:53:36.778Z,10.7
2023-03-17T02:54:36.861Z,10.7
2023-03-17T02:55:36.776Z,10.6
2023-03-17T02:56:36.818Z,10.6
2023-03-17T02:57:36.792Z,10.6
2023-03-17T02:59:36.810Z,10.5
2023-03-17T03:00:36.787Z,10.4
2023-03-17T03:01:36.883Z,10.3
2023-03-17T03:02:36.825Z,10.3
2023-03-17T03:04:36.781Z,10.2
2023-03-17T03:05:36.802Z,10.2
2023-03-17T03:06:36.793Z,10.2
2023-03-17T03:07:36.810Z,10.2
2023-03-17T03:08:36.802Z,10.1
2023-03-17T03:09:36.787Z,10.1
2023-03-17T03:10:36.782Z,10
2023-03-17T03:12:36.780Z,10
2023-03-17T03:13:36.780Z,10
2023-03-17T03:14:36.810Z,10
2023-03-17T03:15:36.839Z,10
2023-03-17T03:16:36.777Z,10
2023-03-17T03:17:36.781Z,9.9
2023-03-17T03:18:36.790Z,9.9
2023-03-17T03:19:36.784Z,9.9
2023-03-17T03:20:36.811Z,9.9
2023-03-17T03:21:36.787Z,10
2023-03-17T03:22:36.775Z,9.9
2023-03-17T03:23:36.779Z,9.9
2023-03-17T03:25:36.775Z,9.9
2023-03-17T03:26:36.777Z,9.8
2023-03-17T03:27:36.787Z,9.8
2023-03-17T03:28:36.776Z,9.9
2023-03-17T03:29:36.780Z,9.9
2023-03-17T03:30:36.782Z,9.8
2023-03-17T03:31:36.783Z,9.8
2023-03-17T03:33:36.793Z,9.8
2023-03-17T03:34:36.779Z,9.8
2023-03-17T03:35:36.845Z,9.8
2023-03-17T03:36:36.789Z,9.8
2023-03-17T03:37:36.774Z,9.7
2023-03-17T03:38:36.803Z,9.7
2023-03-17T03:39:36.805Z,9.7
2023-03-17T03:40:36.778Z,9.7
2023-03-17T03:41:36.777Z,9.7
2023-03-17T03:42:36.784Z,9.7
2023-03-17T03:43:36.794Z,9.7
2023-03-17T03:44:36.776Z,9.7
2023-03-17T03:46:36.920Z,9.7
2023-03-17T03:47:36.775Z,9.7
2023-03-17T03:48:36.794Z,9.7
2023-03-17T03:49:36.786Z,9.8
2023-03-17T03:50:36.778Z,9.8
2023-03-17T03:51:36.770Z,9.8
2023-03-17T03:52:36.775Z,9.8
2023-03-17T03:54:36.777Z,9.8
2023-03-17T03:55:36.774Z,9.8
2023-03-17T03:56:36.777Z,9.8
2023-03-17T03:57:36.776Z,9.8
2023-03-17T03:58:36.781Z,9.7
2023-03-17T03:59:36.776Z,9.7
2023-03-17T04:00:36.792Z,9.7
2023-03-17T04:01:37.052Z,9.7
2023-03-17T04:02:36.838Z,9.7
2023-03-17T04:03:36.777Z,9.6
2023-03-17T04:04:36.854Z,9.6
2023-03-17T04:05:36.766Z,9.6
2023-03-17T04:07:36.771Z,9.5
2023-03-17T04:08:36.767Z,9.5
2023-03-17T04:09:36.773Z,9.5
2023-03-17T04:10:36.800Z,9.5
2023-03-17T04:11:36.785Z,9.5
2023-03-17T04:13:36.838Z,9.4
2023-03-17T04:14:36.771Z,9.4
2023-03-17T04:15:36.771Z,9.4
2023-03-17T04:16:36.849Z,9.3
2023-03-17T04:18:37.023Z,9.4
2023-03-17T04:19:36.800Z,9.4
2023-03-17T04:20:36.775Z,9.4
2023-03-17T04:21:36.764Z,9.4
2023-03-17T04:22:36.772Z,9.4
2023-03-17T04:23:36.768Z,9.4
2023-03-17T04:24:36.771Z,9.4
2023-03-17T04:25:36.775Z,9.4
2023-03-17T04:26:36.783Z,9.4
2023-03-17T04:27:36.765Z,9.5
2023-03-17T04:28:36.778Z,9.5
2023-03-17T04:29:36.764Z,9.5
2023-03-17T04:30:36.779Z,9.5
2023-03-17T04:31:36.849Z,9.5
2023-03-17T04:32:36.806Z,9.5
2023-03-17T04:34:36.764Z,9.4
2023-03-17T04:35:36.796Z,9.4
2023-03-17T04:36:36.772Z,9.3
2023-03-17T04:37:36.766Z,9.3
2023-03-17T04:38:36.765Z,9.3
2023-03-17T04:39:36.766Z,9.4
2023-03-17T04:40:36.786Z,9.4
2023-03-17T04:41:36.801Z,9.3
2023-03-17T04:42:36.768Z,9.3
2023-03-17T04:43:36.768Z,9.3
2023-03-17T04:44:36.772Z,9.4
2023-03-17T04:45:36.883Z,9.4
2023-03-17T04:46:36.773Z,9.4
2023-03-17T04:47:36.773Z,9.4
2023-03-17T04:48:36.776Z,9.5
2023-03-17T04:49:36.776Z,9.5
2023-03-17T04:50:36.777Z,9.5
2023-03-17T04:51:36.818Z,9.4
2023-03-17T04:52:36.814Z,9.4
2023-03-17T04:53:36.785Z,9.4
2023-03-17T04:55:36.768Z,9.5
2023-03-17T04:56:36.774Z,9.5
2023-03-17T04:57:36.773Z,9.5
2023-03-17T04:58:36.772Z,9.5
2023-03-17T05:00:36.828Z,9.5
2023-03-17T05:01:39.072Z,9.5
2023-03-17T05:02:36.927Z,9.5
2023-03-17T05:04:36.773Z,9.5
2023-03-17T05:05:36.777Z,9.5
2023-03-17T05:06:36.778Z,9.5
2023-03-17T05:07:36.772Z,9.5
2023-03-17T05:08:36.771Z,9.5
2023-03-17T05:09:36.763Z,9.5
2023-03-17T05:10:36.763Z,9.5
2023-03-17T05:11:37.141Z,9.5
2023-03-17T05:12:36.869Z,9.5
2023-03-17T05:13:36.767Z,9.5
2023-03-17T05:14:36.772Z,9.5
2023-03-17T05:16:36.815Z,9.6
2023-03-17T05:17:36.771Z,9.6
2023-03-17T05:18:36.772Z,9.6
2023-03-17T05:19:36.765Z,9.6
2023-03-17T05:22:36.769Z,9.7
2023-03-17T05:23:36.773Z,9.7
2023-03-17T05:24:36.775Z,9.7
2023-03-17T05:25:36.779Z,9.8
2023-03-17T05:27:36.767Z,9.8
2023-03-17T05:28:36.762Z,9.8
2023-03-17T05:29:36.761Z,9.8
2023-03-17T05:30:36.860Z,9.8
2023-03-17T05:31:36.765Z,9.8
2023-03-17T05:32:36.788Z,9.8
2023-03-17T05:33:36.767Z,9.9
2023-03-17T05:34:36.759Z,9.9
2023-03-17T05:35:36.792Z,9.9
2023-03-17T05:36:36.773Z,9.9
2023-03-17T05:37:36.767Z,9.9
2023-03-17T05:38:36.763Z,9.8
2023-03-17T05:39:36.771Z,9.9
2023-03-17T05:40:36.760Z,9.9
2023-03-17T05:41:36.765Z,9.9
2023-03-17T05:42:36.766Z,9.9
2023-03-17T05:43:36.800Z,9.9
2023-03-17T05:44:36.766Z,9.9
2023-03-17T05:45:36.768Z,9.9
2023-03-17T05:46:36.785Z,9.9
2023-03-17T05:48:36.761Z,9.9
2023-03-17T05:49:36.754Z,9.9
2023-03-17T05:50:36.763Z,9.9
2023-03-17T05:51:37.125Z,9.9
2023-03-17T05:52:36.752Z,9.9
2023-03-17T05:53:36.768Z,10
2023-03-17T05:54:36.768Z,10
2023-03-17T05:55:36.766Z,10
2023-03-17T05:56:36.764Z,10
2023-03-17T05:57:36.776Z,10
2023-03-17T05:58:36.761Z,10
2023-03-17T05:59:36.764Z,10
2023-03-17T06:00:36.770Z,10
2023-03-17T06:01:36.761Z,10
2023-03-17T06:02:36.788Z,10
2023-03-17T06:03:36.807Z,10
2023-03-17T06:04:36.761Z,10
2023-03-17T06:05:36.770Z,10
2023-03-17T06:06:36.764Z,10
2023-03-17T06:07:50.913Z,10.1
2023-03-17T06:09:36.776Z,10.1
2023-03-17T06:10:36.757Z,10.1
2023-03-17T06:12:36.771Z,10.2
2023-03-17T06:13:36.775Z,10.2
2023-03-17T06:14:36.799Z,10.2
2023-03-17T06:15:36.823Z,10.2
2023-03-17T06:16:36.818Z,10.3
2023-03-17T06:17:36.757Z,10.3
2023-03-17T06:18:36.768Z,10.4
2023-03-17T06:19:36.761Z,10.4
2023-03-17T06:20:36.829Z,10.5
2023-03-17T06:21:36.768Z,10.5
2023-03-17T06:22:36.761Z,10.5
2023-03-17T06:23:36.815Z,10.5
2023-03-17T06:24:36.764Z,10.5
2023-03-17T06:25:36.792Z,10.5
2023-03-17T06:26:36.822Z,10.6
2023-03-17T06:29:36.772Z,10.7
2023-03-17T06:30:40.018Z,10.7
2023-03-17T06:31:36.797Z,10.8
2023-03-17T06:33:36.770Z,11
2023-03-17T06:34:36.759Z,11.1
2023-03-17T06:35:36.817Z,11.1
2023-03-17T06:36:38.624Z,11.2
2023-03-17T06:37:36.757Z,11.3
2023-03-17T06:38:37.530Z,11.5
2023-03-17T06:39:36.777Z,11.6
2023-03-17T06:41:36.757Z,11.8
2023-03-17T06:42:36.775Z,11.9
2023-03-17T06:43:36.760Z,12
2023-03-17T06:44:36.760Z,12
2023-03-17T06:45:36.787Z,12.1
2023-03-17T06:46:36.820Z,12.2
2023-03-17T06:47:36.760Z,12.3
2023-03-17T06:49:36.807Z,12.5
2023-03-17T06:50:36.764Z,12.5
2023-03-17T06:51:36.765Z,12.6
2023-03-17T06:52:36.769Z,12.8
2023-03-17T06:54:36.774Z,13
2023-03-17T06:55:36.772Z,13.2
2023-03-17T06:56:36.762Z,13.2
2023-03-17T06:57:36.762Z,13.2
2023-03-17T06:58:36.759Z,13.3
2023-03-17T06:59:36.768Z,13.3
2023-03-17T07:00:36.767Z,13.4
2023-03-17T07:02:36.761Z,13.5
2023-03-17T07:03:38.189Z,13.7
2023-03-17T07:04:36.930Z,13.8
2023-03-17T07:05:36.759Z,13.9
2023-03-17T07:06:36.762Z,14
2023-03-17T07:07:36.760Z,14.1
2023-03-17T07:08:36.758Z,14.2
2023-03-17T07:09:36.756Z,14.3
2023-03-17T07:10:36.763Z,14.4
2023-03-17T07:12:36.796Z,14.4
2023-03-17T07:13:36.750Z,14.5
2023-03-17T07:14:36.813Z,14.5
2023-03-17T07:15:36.749Z,14.3
2023-03-17T07:16:36.954Z,14.2
2023-03-17T07:17:36.771Z,14.2
2023-03-17T07:18:36.765Z,14.1
2023-03-17T07:19:36.791Z,14.1
2023-03-17T07:20:36.782Z,14
2023-03-17T07:21:36.763Z,14
2023-03-17T07:23:36.748Z,14
2023-03-17T07:24:36.788Z,14.1
2023-03-17T07:25:36.801Z,14.2
2023-03-17T07:26:36.761Z,14.3
2023-03-17T07:27:36.756Z,14.5
2023-03-17T07:28:36.762Z,14.8
2023-03-17T07:29:36.784Z,14.9
2023-03-17T07:31:36.862Z,15
2023-03-17T07:32:36.805Z,14.9
2023-03-17T07:33:36.759Z,14.8
2023-03-17T07:34:36.755Z,14.7
2023-03-17T07:36:36.796Z,14.6
2023-03-17T07:37:36.751Z,14.8
2023-03-17T07:38:36.753Z,15
2023-03-17T07:39:36.757Z,15
2023-03-17T07:40:36.768Z,15.1
2023-03-17T07:41:36.796Z,15.3
2023-03-17T07:42:36.754Z,15.5
2023-03-17T07:43:36.760Z,15.7
2023-03-17T07:44:36.748Z,15.7
2023-03-17T07:45:36.798Z,15.7
2023-03-17T07:46:36.758Z,15.6
2023-03-17T07:47:36.786Z,15.8
2023-03-17T07:48:36.759Z,16
2023-03-17T07:49:41.755Z,16.2
2023-03-17T07:50:36.755Z,16.4
2023-03-17T07:51:36.761Z,16.6
2023-03-17T07:52:36.753Z,16.8
2023-03-17T07:53:36.757Z,17
2023-03-17T07:55:36.762Z,17
2023-03-17T07:56:36.768Z,17
2023-03-17T07:57:36.789Z,17
2023-03-17T07:58:36.756Z,17.2
2023-03-17T07:59:36.760Z,17.2
2023-03-17T08:00:36.826Z,17.4
2023-03-17T08:01:36.875Z,17.4
2023-03-17T08:03:38.642Z,17.2
2023-03-17T08:04:36.785Z,17.1
2023-03-17T08:05:36.781Z,17
2023-03-17T08:06:36.786Z,17
2023-03-17T08:07:36.775Z,17
2023-03-17T08:08:36.770Z,17
2023-03-17T08:09:36.752Z,17
2023-03-17T08:10:36.787Z,16.9
2023-03-17T08:11:36.762Z,17
2023-03-17T08:12:36.779Z,17
2023-03-17T08:13:36.761Z,17
2023-03-17T08:14:36.805Z,16.8
2023-03-17T08:15:36.754Z,16.7
2023-03-17T08:16:36.884Z,16.6
2023-03-17T08:17:36.824Z,16.5
2023-03-17T08:18:36.798Z,16.6
2023-03-17T08:19:36.845Z,16.6
2023-03-17T08:20:36.748Z,16.7
2023-03-17T08:21:36.808Z,16.8
2023-03-17T08:22:36.755Z,16.6
2023-03-17T08:24:36.772Z,16.7
2023-03-17T08:25:36.770Z,16.6
2023-03-17T08:26:36.758Z,16.8
2023-03-17T08:27:36.763Z,16.8
2023-03-17T08:28:36.754Z,16.7
2023-03-17T08:29:36.752Z,16.8
2023-03-17T08:30:37.202Z,16.9
2023-03-17T08:31:36.797Z,17
2023-03-17T08:32:36.880Z,17
2023-03-17T08:33:36.796Z,17.1
2023-03-17T08:34:36.762Z,17.2
2023-03-17T08:35:36.789Z,17.2
2023-03-17T08:37:36.765Z,17.4
2023-03-17T08:38:36.754Z,17.4
2023-03-17T08:39:36.759Z,17.3
2023-03-17T08:40:36.810Z,17.2
2023-03-17T08:41:36.753Z,17.1
2023-03-17T08:42:36.749Z,17
2023-03-17T08:43:36.757Z,17.2
2023-03-17T08:44:36.763Z,17.4
2023-03-17T08:45:36.757Z,17.6
2023-03-17T08:46:36.836Z,17.5
2023-03-17T08:48:36.764Z,17.4
2023-03-17T08:49:36.812Z,17.1
2023-03-17T08:50:36.772Z,17.2
2023-03-17T08:51:36.766Z,17.3
2023-03-17T08:52:36.750Z,17.5
2023-03-17T08:53:36.761Z,17.5
2023-03-17T08:56:36.765Z,18.2
2023-03-17T08:57:36.787Z,18.6
2023-03-17T08:58:36.766Z,18.9
2023-03-17T08:59:36.762Z,19.1
2023-03-17T09:00:36.777Z,19.1
2023-03-17T09:01:36.916Z,19.2
2023-03-17T09:02:36.817Z,19
2023-03-17T09:04:38.975Z,18.7
2023-03-17T09:05:38.481Z,18.6
2023-03-17T09:06:36.826Z,18.5
2023-03-17T09:07:36.849Z,18.5
2023-03-17T09:09:36.776Z,18.8
2023-03-17T09:10:36.769Z,18.9
2023-03-17T09:11:36.862Z,19.1
2023-03-17T09:12:36.782Z,19.2
2023-03-17T09:13:36.760Z,19.4
2023-03-17T09:14:43.470Z,19.6
2023-03-17T09:15:36.875Z,19.8
2023-03-17T09:17:36.795Z,20.4
2023-03-17T09:18:36.771Z,20.6
2023-03-17T09:19:36.768Z,20.6
2023-03-17T09:20:36.797Z,20.9
2023-03-17T09:21:36.776Z,21.2
2023-03-17T09:22:36.789Z,21.2
2023-03-17T09:23:36.764Z,21.2
2023-03-17T09:25:36.774Z,21.4
2023-03-17T09:26:36.775Z,21.8
2023-03-17T09:27:36.764Z,21.8
2023-03-17T09:28:36.768Z,21.6
2023-03-17T09:30:36.773Z,20.9
2023-03-17T09:31:36.916Z,20.8
2023-03-17T09:32:36.801Z,20.8
2023-03-17T09:33:36.754Z,20.7
2023-03-17T09:34:36.776Z,21
2023-03-17T09:35:36.836Z,21.1
2023-03-17T09:36:36.765Z,21.1
2023-03-17T09:38:36.768Z,21.1
2023-03-17T09:39:36.779Z,21
2023-03-17T09:40:36.763Z,21.1
2023-03-17T09:41:36.757Z,20.9
2023-03-17T09:42:36.768Z,20.9
2023-03-17T09:43:36.766Z,20.5
2023-03-17T09:44:36.768Z,20.3
2023-03-17T09:45:36.773Z,20.4
2023-03-17T09:46:36.805Z,20.6
2023-03-17T09:47:36.775Z,20.5
2023-03-17T09:49:36.774Z,20.9
2023-03-17T09:50:36.773Z,21.1
2023-03-17T09:51:36.783Z,21.3
2023-03-17T09:52:36.767Z,21.4
2023-03-17T09:53:36.771Z,21.5
2023-03-17T09:54:36.766Z,21.7
2023-03-17T09:55:36.768Z,21.9
2023-03-17T09:57:36.767Z,22.6
2023-03-17T09:58:36.790Z,22.7
2023-03-17T09:59:36.771Z,23
2023-03-17T10:00:36.767Z,23
2023-03-17T10:01:36.832Z,23.2
2023-03-17T10:02:36.771Z,23.6
2023-03-17T10:03:36.772Z,24.1
2023-03-17T10:04:36.777Z,24.4
2023-03-17T10:05:36.975Z,24.7
2023-03-17T10:06:36.777Z,24.8
2023-03-17T10:07:36.769Z,24.8
2023-03-17T10:08:36.767Z,24.9
2023-03-17T10:10:36.773Z,24.2
2023-03-17T10:11:36.765Z,23.8
2023-03-17T10:12:36.778Z,23.8
2023-03-17T10:13:36.779Z,24
2023-03-17T10:14:36.771Z,23.9
2023-03-17T10:15:36.799Z,23.7
2023-03-17T10:16:36.835Z,23.9
2023-03-17T10:18:36.875Z,24.2
2023-03-17T10:19:36.790Z,24.4
2023-03-17T10:20:36.769Z,24.1
2023-03-17T10:21:36.774Z,23.7
2023-03-17T10:22:36.798Z,23.7
2023-03-17T10:23:36.776Z,23.3
2023-03-17T10:24:36.791Z,23.4
2023-03-17T10:25:36.780Z,23.3
2023-03-17T10:26:36.773Z,23.4
2023-03-17T10:27:36.769Z,23.4
2023-03-17T10:28:36.847Z,23.8
2023-03-17T10:29:36.779Z,23.9
2023-03-17T10:31:36.870Z,24.6
2023-03-17T10:32:36.825Z,24.5
2023-03-17T10:33:36.776Z,24.6
2023-03-17T10:34:38.114Z,24.7
2023-03-17T10:35:36.813Z,24.8
2023-03-17T10:36:36.770Z,25.2
2023-03-17T10:37:36.789Z,25.9
2023-03-17T10:39:36.769Z,26.8
2023-03-17T10:40:36.791Z,26.7
2023-03-17T10:41:36.770Z,27
2023-03-17T10:42:36.775Z,27
2023-03-17T10:43:36.783Z,27.3
2023-03-17T10:44:36.777Z,27.6
2023-03-17T10:45:39.083Z,27.9
2023-03-17T10:46:36.777Z,28.2
2023-03-17T10:47:36.774Z,27.9
2023-03-17T10:48:36.793Z,27.5
2023-03-17T10:50:36.871Z,27.7
2023-03-17T10:51:36.796Z,27.4
2023-03-17T10:52:36.792Z,27.3
2023-03-17T10:53:36.814Z,26.9
2023-03-17T10:54:36.781Z,26.5
2023-03-17T10:55:36.789Z,25.9
2023-03-17T10:56:36.780Z,25.4
2023-03-17T10:58:36.779Z,25
2023-03-17T10:59:36.779Z,25
2023-03-17T11:00:36.881Z,25.1
2023-03-17T11:01:36.825Z,25
2023-03-17T11:03:36.822Z,24.8
2023-03-17T11:04:36.790Z,24.9
2023-03-17T11:05:38.297Z,25.1
2023-03-17T11:06:36.808Z,25.2
2023-03-17T11:07:36.784Z,25.2
2023-03-17T11:08:36.787Z,25
2023-03-17T11:09:36.780Z,24.8
2023-03-17T11:10:36.794Z,24.6
2023-03-17T11:11:36.782Z,24.5
2023-03-17T11:13:36.828Z,23.7
2023-03-17T11:14:36.787Z,23.5
2023-03-17T11:15:36.881Z,23.2
2023-03-17T11:16:36.833Z,23
2023-03-17T11:17:36.789Z,23.1
2023-03-17T11:18:36.791Z,23.2
2023-03-17T11:19:36.789Z,23.1
2023-03-17T11:21:36.793Z,22.9
2023-03-17T11:22:36.780Z,23
2023-03-17T11:23:36.812Z,23.1
2023-03-17T11:24:36.812Z,23.2
2023-03-17T11:25:36.782Z,23.1
2023-03-17T11:26:36.810Z,23.1
2023-03-17T11:27:36.793Z,22.9
2023-03-17T11:28:36.788Z,22.7
2023-03-17T11:29:36.790Z,22.7
2023-03-17T11:30:36.803Z,23
2023-03-17T11:31:36.859Z,23.3
2023-03-17T11:32:36.984Z,23.7
2023-03-17T11:34:36.801Z,24.1
2023-03-17T11:35:36.836Z,24.1
2023-03-17T11:36:36.791Z,23.9
2023-03-17T11:37:36.799Z,23.9
2023-03-17T11:38:36.793Z,23.9
2023-03-17T11:39:36.784Z,24.1
2023-03-17T11:40:36.791Z,24.2
2023-03-17T11:42:36.786Z,24
2023-03-17T11:43:36.813Z,24.1
2023-03-17T11:44:36.812Z,23.7
2023-03-17T11:45:36.852Z,23.9
2023-03-17T11:47:36.806Z,23.3
2023-03-17T11:48:36.797Z,23.4
2023-03-17T11:49:37.193Z,23.5
2023-03-17T11:50:36.812Z,23.4
2023-03-17T11:51:36.845Z,23.4
2023-03-17T11:52:36.789Z,23.4
2023-03-17T11:53:36.799Z,23.5
2023-03-17T11:54:36.797Z,23.7
2023-03-17T11:55:36.815Z,23.8
2023-03-17T11:56:36.807Z,23.9
2023-03-17T11:57:36.796Z,23.9
2023-03-17T11:58:36.797Z,23.6
2023-03-17T11:59:36.792Z,23.6
2023-03-17T12:00:36.800Z,23.7
2023-03-17T12:01:36.793Z,23.9
2023-03-17T12:02:36.796Z,24
2023-03-17T12:03:36.849Z,24.1
2023-03-17T12:04:36.833Z,24
2023-03-17T12:06:36.804Z,23.8
2023-03-17T12:07:36.802Z,23.7
2023-03-17T12:08:36.805Z,23.6
2023-03-17T12:09:36.786Z,23.5
2023-03-17T12:10:36.793Z,23.2
2023-03-17T12:11:36.786Z,22.6
2023-03-17T12:12:36.795Z,22.3
2023-03-17T12:14:36.799Z,22.5
2023-03-17T12:15:36.882Z,22.6
2023-03-17T12:16:36.793Z,22.5
2023-03-17T12:17:36.786Z,22.2
2023-03-17T12:18:36.797Z,21.7
2023-03-17T12:19:36.838Z,21.6
2023-03-17T12:20:36.817Z,21.5
2023-03-17T12:21:36.852Z,21.7
2023-03-17T12:22:36.801Z,21.5
2023-03-17T12:23:36.810Z,21.5
2023-03-17T12:24:36.795Z,21.7
2023-03-17T12:25:36.803Z,21.9
2023-03-17T12:27:36.799Z,21.9
2023-03-17T12:28:36.809Z,21.7
2023-03-17T12:29:36.789Z,21.5
2023-03-17T12:30:36.795Z,21.4
2023-03-17T12:31:36.911Z,21.5
2023-03-17T12:32:36.846Z,21.5
2023-03-17T12:33:36.802Z,21.6
2023-03-17T12:35:36.936Z,21.8
2023-03-17T12:36:36.795Z,21.8
2023-03-17T12:37:36.795Z,21.8
2023-03-17T12:38:36.802Z,21.8
2023-03-17T12:39:36.803Z,21.9
2023-03-17T12:40:36.789Z,22
2023-03-17T12:41:36.794Z,21.9
2023-03-17T12:42:36.811Z,21.9
2023-03-17T12:43:36.800Z,21.9
2023-03-17T12:44:36.797Z,21.8
2023-03-17T12:45:36.800Z,21.8
2023-03-17T12:46:36.915Z,21.9
2023-03-17T12:48:36.791Z,21.8
2023-03-17T12:49:36.810Z,21.7
2023-03-17T12:50:36.801Z,21.7
2023-03-17T12:51:38.571Z,21.5
2023-03-17T12:52:36.804Z,21.5
2023-03-17T12:53:36.806Z,21.5
2023-03-17T12:54:36.820Z,21.4
2023-03-17T12:56:36.824Z,20.8
2023-03-17T12:57:36.827Z,20.6
2023-03-17T12:58:36.834Z,20.5
2023-03-17T12:59:36.802Z,20.5
2023-03-17T13:00:36.815Z,20.6
2023-03-17T13:01:36.867Z,20.6
2023-03-17T13:02:36.811Z,20.5
2023-03-17T13:03:36.965Z,20.4
2023-03-17T13:04:36.804Z,20.4
2023-03-17T13:05:36.802Z,20.4
2023-03-17T13:07:36.796Z,20.3
2023-03-17T13:08:36.813Z,20.5
2023-03-17T13:09:36.804Z,20.4
2023-03-17T13:10:36.810Z,20.5
2023-03-17T13:11:36.814Z,20.5
2023-03-17T13:12:36.801Z,20.4
2023-03-17T13:13:36.837Z,20.4
2023-03-17T13:15:36.800Z,20.5
2023-03-17T13:16:36.939Z,20.6
2023-03-17T13:17:36.799Z,20.6
2023-03-17T13:18:36.804Z,20.6
2023-03-17T13:20:36.793Z,20.5
2023-03-17T13:21:36.801Z,20.4
2023-03-17T13:22:36.804Z,20.4
2023-03-17T13:23:36.802Z,20.4
2023-03-17T13:24:36.799Z,20.5
2023-03-17T13:25:36.821Z,20.4
2023-03-17T13:26:36.810Z,20.1
2023-03-17T13:28:36.827Z,20
2023-03-17T13:29:36.817Z,19.9
2023-03-17T13:30:36.824Z,19.9
2023-03-17T13:31:36.987Z,19.9
2023-03-17T13:32:37.146Z,19.9
2023-03-17T13:33:36.811Z,19.9
2023-03-17T13:34:36.797Z,19.9
2023-03-17T13:36:36.803Z,19.9
2023-03-17T13:37:36.804Z,20
2023-03-17T13:38:36.806Z,20.1
2023-03-17T13:39:36.819Z,20
2023-03-17T13:41:36.801Z,20.1
2023-03-17T13:42:36.804Z,20
2023-03-17T13:43:36.801Z,20
2023-03-17T13:44:36.804Z,20
2023-03-17T13:45:36.809Z,20
2023-03-17T13:46:36.869Z,20
2023-03-17T13:47:36.837Z,20
2023-03-17T13:49:36.825Z,19.9
2023-03-17T13:50:36.817Z,19.8
2023-03-17T13:51:37.617Z,19.8
2023-03-17T13:52:36.803Z,19.7
2023-03-17T13:53:36.819Z,19.7
2023-03-17T13:54:36.804Z,19.9
2023-03-17T13:55:36.845Z,19.9
2023-03-17T13:57:36.812Z,19.9
2023-03-17T13:58:36.802Z,19.9
2023-03-17T13:59:36.835Z,19.8
2023-03-17T14:00:36.823Z,19.8
2023-03-17T14:02:36.822Z,19.7
2023-03-17T14:03:36.906Z,19.7
2023-03-17T14:04:36.807Z,19.7
2023-03-17T14:05:36.816Z,19.8
2023-03-17T14:06:36.811Z,19.8
2023-03-17T14:08:36.808Z,19.7
2023-03-17T14:09:36.808Z,19.8
2023-03-17T14:10:36.814Z,19.8
2023-03-17T14:11:36.810Z,19.8
2023-03-17T14:12:36.835Z,19.8
2023-03-17T14:13:36.820Z,19.8
2023-03-17T14:14:36.825Z,19.7
2023-03-17T14:15:36.822Z,19.6
2023-03-17T14:16:36.906Z,19.5
2023-03-17T14:17:36.843Z,19.4
2023-03-17T14:18:36.810Z,19.4
2023-03-17T14:19:36.814Z,19.4
2023-03-17T14:21:36.822Z,19.4
2023-03-17T14:22:36.802Z,19.5
2023-03-17T14:23:36.810Z,19.5
2023-03-17T14:24:36.819Z,19.5
2023-03-17T14:25:36.818Z,19.6
2023-03-17T14:26:36.820Z,19.7
2023-03-17T14:27:36.826Z,19.7
2023-03-17T14:29:36.808Z,19.8
2023-03-17T14:30:36.838Z,19.9
2023-03-17T14:31:36.978Z,20
2023-03-17T14:33:36.877Z,20.1
2023-03-17T14:34:36.805Z,20
2023-03-17T14:35:36.849Z,20
2023-03-17T14:36:36.819Z,20.1
2023-03-17T14:37:36.808Z,19.9
2023-03-17T14:38:36.825Z,20
2023-03-17T14:39:36.834Z,20
2023-03-17T14:40:36.900Z,19.9
2023-03-17T14:42:36.824Z,19.9
2023-03-17T14:43:36.830Z,19.9
2023-03-17T14:44:36.821Z,19.9
2023-03-17T14:45:36.849Z,19.8
2023-03-17T14:46:36.822Z,19.7
2023-03-17T14:47:36.873Z,19.8
2023-03-17T14:48:36.815Z,19.9
2023-03-17T14:50:36.823Z,19.8
2023-03-17T14:51:36.819Z,19.8
2023-03-17T14:52:36.812Z,19.8
2023-03-17T14:53:36.820Z,19.8
2023-03-17T14:54:36.805Z,19.7
2023-03-17T14:55:36.840Z,19.7
2023-03-17T14:56:36.808Z,19.7
2023-03-17T14:57:36.814Z,19.7
2023-03-17T14:58:36.830Z,19.8
2023-03-17T14:59:36.821Z,19.9
2023-03-17T15:00:36.823Z,20
2023-03-17T15:01:36.916Z,20
2023-03-17T15:03:36.821Z,19.9
2023-03-17T15:04:36.820Z,20
2023-03-17T15:05:36.821Z,20
2023-03-17T15:06:37.532Z,20
2023-03-17T15:07:36.857Z,20.1
2023-03-17T15:09:36.818Z,20.1
2023-03-17T15:10:36.805Z,20.1
2023-03-17T15:11:36.824Z,20.1
2023-03-17T15:12:36.820Z,20
2023-03-17T15:14:36.838Z,19.7
2023-03-17T15:15:36.825Z,19.5
2023-03-17T15:16:36.879Z,19.4